Terminal Aerodrome Forecast
Issued by NWS

Home | Current Version | Previous Version | Text Only | Print | Product List | Glossary On
Versions: 1 2 3 4 5 6 7 8 9 10 11 12
000
FTUS46 KEKA 272330
TAFCEC
TAF
KCEC 272330Z 2800/2824 17008KT P6SM FEW050 OVC200
     FM280300 15003KT P6SM FEW030 BKN050 OVC100
     FM280900 05003KT P6SM -RA SCT025 OVC040
     FM281800 33006KT P6SM BKN100=

USA.gov is the U.S. government's official web portal to all federal, state and local government web resources and services.